Time;durP1;ratioP1;P1;durP2;ratioP2;P2;SDS_P1;SDS_P2;PMS_P1;PMS_P2;Temp;Humidity;BMP_temperature;BMP_pressure;BME280_temperature;BME280_humidity;BME280_pressure;Samples;Min_cycle;Max_cycle;Signal;HPM_P1;HPM_P2
2023/01/18 00:00:39;;;;;;;2.53;2.33;;;21.50;56.70;;;;;;4921039;29;20548;-72
2023/01/18 00:03:11;;;;;;;2.03;1.90;;;21.50;56.70;;;;;;4919658;29;20496;-72
2023/01/18 00:05:40;;;;;;;2.33;2.13;;;21.50;56.70;;;;;;4926496;29;20562;-71
2023/01/18 00:08:09;;;;;;;2.40;2.20;;;21.50;56.70;;;;;;4927196;29;20582;-70
2023/01/18 00:10:39;;;;;;;2.60;2.40;;;21.50;56.70;;;;;;4929854;29;20606;-72
2023/01/18 00:13:07;;;;;;;2.33;2.17;;;21.50;56.70;;;;;;4928003;29;20473;-71
2023/01/18 00:15:37;;;;;;;2.67;2.50;;;21.40;56.70;;;;;;4929654;29;20526;-72
2023/01/18 00:18:06;;;;;;;2.53;2.33;;;21.40;56.70;;;;;;4929020;29;20898;-72
2023/01/18 00:20:34;;;;;;;2.73;2.53;;;21.40;56.70;;;;;;4932801;29;20465;-72
2023/01/18 00:23:02;;;;;;;2.43;2.23;;;21.40;56.70;;;;;;4931848;29;20488;-72
2023/01/18 00:25:30;;;;;;;3.20;2.63;;;21.40;56.70;;;;;;4929919;29;20466;-70
2023/01/18 00:28:00;;;;;;;2.20;2.10;;;21.40;56.70;;;;;;4932388;29;20499;-70
2023/01/18 00:30:29;;;;;;;2.40;2.20;;;21.40;56.70;;;;;;4929165;29;20467;-69
2023/01/18 00:32:58;;;;;;;2.07;1.97;;;21.40;56.80;;;;;;4931591;29;20829;-71
2023/01/18 00:35:27;;;;;;;2.70;2.50;;;21.40;56.80;;;;;;4925030;29;20464;-72
2023/01/18 00:37:56;;;;;;;3.10;2.83;;;21.40;56.80;;;;;;4924883;29;20926;-72
2023/01/18 00:40:27;;;;;;;2.53;2.30;;;21.40;56.80;;;;;;4932898;29;20841;-71
2023/01/18 00:45:57;;;;;;;2.00;1.90;;;21.40;56.70;;;;;;4888634;29;20575;-71
2023/01/18 00:48:25;;;;;;;2.50;2.30;;;21.40;56.70;;;;;;4892310;29;20809;-72
2023/01/18 00:50:53;;;;;;;2.10;2.00;;;21.40;56.70;;;;;;4906344;29;20562;-71
2023/01/18 00:53:21;;;;;;;2.40;2.20;;;21.40;56.70;;;;;;4925286;29;20467;-72
2023/01/18 00:55:49;;;;;;;2.50;2.30;;;21.40;56.70;;;;;;4929942;29;20953;-71
2023/01/18 00:58:18;;;;;;;2.63;2.47;;;21.40;56.70;;;;;;4930788;29;20473;-71
2023/01/18 01:00:46;;;;;;;2.20;2.10;;;21.40;56.70;;;;;;4928684;29;20455;-70
2023/01/18 01:03:16;;;;;;;2.10;2.00;;;21.40;56.70;;;;;;4927305;29;20515;-71
2023/01/18 01:08:30;;;;;;;2.03;1.90;;;21.40;56.70;;;;;;4924813;29;20499;-72
2023/01/18 01:11:06;;;;;;;2.97;2.40;;;21.40;56.70;;;;;;4924954;29;20452;-72
2023/01/18 01:27:25;;;;;;;2.00;1.90;;;21.30;56.60;;;;;;4929082;29;20502;-71
2023/01/18 01:29:54;;;;;;;2.90;2.70;;;21.30;56.60;;;;;;4930062;29;20963;-71
2023/01/18 01:32:22;;;;;;;2.83;2.63;;;21.30;56.60;;;;;;4927341;29;20573;-70
2023/01/18 01:34:51;;;;;;;2.17;2.07;;;21.30;56.60;;;;;;4926716;29;20801;-72
2023/01/18 01:37:19;;;;;;;1.83;1.73;;;21.30;56.60;;;;;;4931387;29;20473;-71
2023/01/18 01:39:48;;;;;;;1.87;1.77;;;21.30;56.60;;;;;;4925834;29;20558;-71
2023/01/18 01:42:16;;;;;;;2.30;2.20;;;21.30;56.60;;;;;;4931247;29;20497;-71
2023/01/18 01:44:48;;;;;;;2.30;2.20;;;21.30;56.60;;;;;;4932934;29;20550;-71
2023/01/18 01:47:34;;;;;;;2.13;2.03;;;21.30;56.60;;;;;;4934610;29;20769;-71
2023/01/18 01:50:11;;;;;;;2.37;2.20;;;21.30;56.60;;;;;;4931884;29;20465;-72
2023/01/18 01:52:41;;;;;;;2.77;2.57;;;21.30;56.60;;;;;;4934432;29;20913;-70
2023/01/18 01:55:14;;;;;;;1.70;1.60;;;21.30;56.60;;;;;;4933282;29;20502;-72
2023/01/18 01:57:47;;;;;;;2.10;2.00;;;21.30;56.60;;;;;;4933209;29;20466;-71
2023/01/18 02:00:18;;;;;;;2.63;2.43;;;21.30;56.60;;;;;;4935869;29;20546;-71
2023/01/18 02:02:50;;;;;;;2.10;2.00;;;21.30;56.60;;;;;;4935830;29;20567;-71
2023/01/18 02:05:20;;;;;;;2.20;2.10;;;21.30;56.50;;;;;;4929338;29;20758;-71
2023/01/18 02:07:49;;;;;;;2.40;1.97;;;21.30;56.50;;;;;;4938147;29;20466;-71
2023/01/18 02:10:17;;;;;;;1.73;1.63;;;21.30;56.60;;;;;;4929446;29;20940;-71
2023/01/18 02:12:48;;;;;;;2.27;2.10;;;21.30;56.60;;;;;;4936508;29;20478;-72
2023/01/18 02:15:17;;;;;;;1.90;1.80;;;21.30;56.60;;;;;;4932631;29;20589;-72
2023/01/18 02:18:02;;;;;;;2.80;2.60;;;21.30;56.60;;;;;;4936423;29;20490;-71
2023/01/18 02:20:57;;;;;;;2.27;2.17;;;21.30;56.60;;;;;;4933751;29;20570;-71
2023/01/18 02:23:51;;;;;;;2.23;2.03;;;21.30;56.50;;;;;;4936499;29;20462;-72
2023/01/18 02:26:48;;;;;;;2.17;2.03;;;21.30;56.50;;;;;;4947606;29;20472;-70
2023/01/18 02:29:20;;;;;;;2.47;2.37;;;21.30;56.50;;;;;;4928870;29;20441;-71
2023/01/18 02:32:13;;;;;;;2.57;2.37;;;21.30;56.50;;;;;;4937104;29;20543;-71
2023/01/18 02:34:47;;;;;;;2.43;2.23;;;21.30;56.50;;;;;;4925843;29;20459;-72
2023/01/18 02:37:23;;;;;;;2.13;1.97;;;21.30;56.50;;;;;;4935331;29;20916;-72
2023/01/18 02:40:04;;;;;;;2.17;2.00;;;21.30;56.50;;;;;;4934630;29;20447;-72
2023/01/18 02:48:16;;;;;;;2.13;1.93;;;21.30;56.40;;;;;;4933017;29;20478;-69
2023/01/18 02:50:45;;;;;;;2.30;2.03;;;21.30;56.40;;;;;;4937087;29;20962;-71
2023/01/18 02:53:14;;;;;;;1.83;1.73;;;21.30;56.50;;;;;;4937161;29;21038;-71
2023/01/18 02:55:47;;;;;;;2.30;2.20;;;21.30;56.40;;;;;;4937262;29;20470;-71
2023/01/18 02:58:23;;;;;;;2.10;2.00;;;21.30;56.40;;;;;;4933463;29;20982;-71
2023/01/18 03:00:58;;;;;;;2.40;2.20;;;21.30;56.40;;;;;;4930556;29;20465;-71
2023/01/18 03:03:27;;;;;;;2.40;2.20;;;21.30;56.40;;;;;;4933196;29;20521;-70
2023/01/18 03:05:59;;;;;;;1.93;1.77;;;21.30;56.40;;;;;;4934987;29;20467;-70
2023/01/18 03:08:34;;;;;;;2.10;2.00;;;21.30;56.40;;;;;;4931291;29;20455;-72
2023/01/18 03:11:04;;;;;;;3.53;2.47;;;21.30;56.30;;;;;;4932632;29;20562;-70
2023/01/18 03:14:03;;;;;;;1.90;1.80;;;21.30;56.30;;;;;;4934228;29;20570;-71
2023/01/18 03:16:56;;;;;;;1.90;1.73;;;21.30;56.30;;;;;;4931950;29;20470;-71
2023/01/18 03:23:36;;;;;;;1.87;1.77;;;21.30;56.40;;;;;;4927489;29;20459;-70
2023/01/18 03:25:14;;;;;;;1.90;1.80;;;21.30;56.30;;;;;;4935770;29;21370;-69
2023/01/18 03:36:12;;;;;;;2.23;2.13;;;21.20;56.30;;;;;;4933076;29;20475;-71
2023/01/18 03:38:43;;;;;;;2.20;2.10;;;21.30;56.30;;;;;;4932330;29;20452;-71
2023/01/18 03:41:13;;;;;;;2.00;1.90;;;21.30;56.30;;;;;;4925271;29;20495;-71
2023/01/18 03:43:42;;;;;;;1.93;1.83;;;21.30;56.30;;;;;;4935565;29;20451;-71
2023/01/18 03:46:11;;;;;;;2.50;2.27;;;21.20;56.30;;;;;;4923719;29;20974;-71
2023/01/18 03:48:41;;;;;;;2.27;2.07;;;21.30;56.30;;;;;;4933796;29;20812;-71
2023/01/18 03:51:18;;;;;;;2.37;2.27;;;21.30;56.30;;;;;;4936418;29;20473;-72
2023/01/18 03:53:55;;;;;;;2.23;2.03;;;21.30;56.30;;;;;;4936021;29;20498;-71
2023/01/18 03:56:29;;;;;;;2.00;1.80;;;21.30;56.30;;;;;;4932541;29;20552;-71
2023/01/18 03:59:03;;;;;;;2.20;2.10;;;21.30;56.30;;;;;;4934254;29;20874;-71
2023/01/18 04:01:31;;;;;;;1.90;1.80;;;21.30;56.20;;;;;;4930515;29;20872;-70
2023/01/18 04:04:01;;;;;;;1.97;1.87;;;21.30;56.20;;;;;;4931787;29;20977;-71
2023/01/18 04:06:32;;;;;;;1.97;1.87;;;21.30;56.20;;;;;;4927561;29;20458;-71
2023/01/18 04:09:00;;;;;;;2.40;1.70;;;21.30;56.20;;;;;;4935445;29;20488;-69
2023/01/18 04:11:28;;;;;;;1.93;1.83;;;21.30;56.20;;;;;;4932863;29;20570;-74
2023/01/18 04:13:57;;;;;;;2.27;2.00;;;21.30;56.10;;;;;;4927305;29;20503;-71
2023/01/18 04:16:25;;;;;;;1.90;1.80;;;21.30;56.10;;;;;;4929712;29;20921;-72
2023/01/18 04:18:53;;;;;;;1.60;1.50;;;21.30;56.10;;;;;;4928590;29;20968;-71
2023/01/18 04:21:22;;;;;;;2.03;1.83;;;21.30;56.10;;;;;;4929706;29;20476;-71
2023/01/18 04:23:51;;;;;;;1.80;1.70;;;21.20;56.10;;;;;;4931018;29;21311;-71
2023/01/18 04:26:19;;;;;;;1.80;1.70;;;21.20;56.10;;;;;;4932326;29;20567;-71
2023/01/18 04:28:47;;;;;;;2.00;1.90;;;21.30;56.10;;;;;;4929042;29;20544;-70
2023/01/18 04:31:15;;;;;;;2.60;2.10;;;21.30;56.10;;;;;;4930071;29;20535;-71
2023/01/18 04:33:44;;;;;;;3.10;2.00;;;21.30;55.80;;;;;;4934870;29;20568;-71
2023/01/18 04:36:12;;;;;;;2.77;2.60;;;21.30;55.80;;;;;;4929361;29;20456;-70
2023/01/18 04:38:42;;;;;;;2.13;2.03;;;21.30;55.70;;;;;;4929660;29;20470;-70
2023/01/18 04:41:10;;;;;;;2.80;2.60;;;21.30;55.80;;;;;;4931706;29;20490;-72
2023/01/18 04:43:38;;;;;;;1.90;1.80;;;21.30;55.50;;;;;;4934425;29;20447;-71
2023/01/18 04:46:06;;;;;;;2.57;2.40;;;21.30;55.00;;;;;;4930534;29;20679;-71
2023/01/18 04:48:34;;;;;;;2.23;2.13;;;21.30;54.90;;;;;;4933267;29;20423;-71
2023/01/18 04:51:02;;;;;;;2.00;1.90;;;21.30;54.70;;;;;;4916610;29;20457;-71
2023/01/18 04:53:30;;;;;;;2.13;2.00;;;21.30;55.30;;;;;;4915864;29;20595;-70
2023/01/18 04:56:00;;;;;;;2.00;1.90;;;21.30;55.60;;;;;;4933569;29;20458;-71
2023/01/18 04:58:28;;;;;;;2.33;2.20;;;21.30;55.30;;;;;;4934216;29;20457;-71
2023/01/18 05:01:00;;;;;;;1.70;1.60;;;21.30;55.30;;;;;;4933260;29;20463;-70
2023/01/18 05:03:29;;;;;;;1.80;1.70;;;21.30;55.60;;;;;;4932189;29;20519;-70
2023/01/18 05:05:57;;;;;;;2.20;2.10;;;21.30;55.60;;;;;;4932552;29;20468;-71
2023/01/18 05:08:25;;;;;;;2.43;2.30;;;21.30;55.70;;;;;;4922296;29;21377;-71
2023/01/18 05:10:59;;;;;;;2.93;1.87;;;21.30;55.70;;;;;;4934732;29;20451;-71
2023/01/18 05:13:29;;;;;;;1.90;1.80;;;21.30;55.70;;;;;;4930185;29;21485;-70
2023/01/18 05:15:59;;;;;;;2.00;1.90;;;21.30;55.80;;;;;;4926153;29;20475;-71
2023/01/18 05:18:27;;;;;;;2.10;2.00;;;21.30;55.80;;;;;;4925867;29;21038;-71
2023/01/18 05:20:56;;;;;;;2.10;2.00;;;21.30;55.80;;;;;;4931401;29;20452;-71
2023/01/18 05:23:24;;;;;;;1.87;1.77;;;21.30;55.80;;;;;;4925791;29;20807;-72
2023/01/18 05:25:53;;;;;;;1.67;1.57;;;21.30;55.80;;;;;;4925475;29;20997;-70
2023/01/18 05:28:22;;;;;;;1.80;1.70;;;21.30;55.80;;;;;;4929261;29;20491;-71
2023/01/18 05:30:52;;;;;;;1.57;1.47;;;21.30;55.80;;;;;;4926220;29;20467;-72
2023/01/18 05:33:22;;;;;;;1.67;1.57;;;21.30;55.80;;;;;;4926101;29;20587;-70
2023/01/18 05:35:51;;;;;;;2.07;1.90;;;21.30;55.90;;;;;;4925202;29;20455;-71
2023/01/18 05:38:19;;;;;;;1.57;1.47;;;21.30;55.90;;;;;;4926722;29;20575;-71
2023/01/18 05:40:51;;;;;;;2.10;2.00;;;21.30;55.90;;;;;;4927598;29;20482;-70
2023/01/18 05:43:19;;;;;;;1.80;1.70;;;21.30;55.90;;;;;;4928239;29;20473;-70
2023/01/18 05:45:48;;;;;;;1.60;1.50;;;21.30;55.50;;;;;;4937666;29;20822;-70
2023/01/18 05:48:18;;;;;;;1.90;1.80;;;21.40;55.40;;;;;;4925840;29;20551;-70
2023/01/18 05:50:48;;;;;;;1.70;1.60;;;21.40;55.00;;;;;;4925632;29;20971;-70
2023/01/18 05:53:17;;;;;;;1.63;1.53;;;21.40;55.70;;;;;;4925517;29;20463;-71
2023/01/18 05:55:53;;;;;;;1.83;1.70;;;21.40;55.90;;;;;;4923148;29;20466;-70
2023/01/18 05:58:22;;;;;;;1.50;1.40;;;21.40;55.90;;;;;;4926281;29;20541;-70
2023/01/18 06:00:50;;;;;;;1.43;1.37;;;21.40;55.90;;;;;;4915833;29;20483;-69
2023/01/18 06:03:20;;;;;;;1.50;1.40;;;21.40;56.00;;;;;;4920710;29;20476;-71
2023/01/18 06:05:50;;;;;;;2.60;1.67;;;21.40;56.10;;;;;;4927938;29;20869;-71
2023/01/18 06:08:21;;;;;;;1.70;1.60;;;21.30;56.10;;;;;;4929454;29;20468;-71
2023/01/18 06:10:53;;;;;;;2.37;1.80;;;21.30;56.20;;;;;;4930164;29;20456;-71
2023/01/18 06:13:22;;;;;;;1.90;1.80;;;21.30;56.20;;;;;;4931103;29;21163;-69
2023/01/18 06:15:53;;;;;;;1.70;1.53;;;21.30;56.30;;;;;;4926887;29;20959;-70
2023/01/18 06:18:23;;;;;;;1.50;1.40;;;21.30;56.40;;;;;;4922955;29;20468;-69
2023/01/18 06:20:54;;;;;;;1.87;1.77;;;21.30;56.40;;;;;;4920806;29;20455;-70
2023/01/18 06:23:22;;;;;;;4.23;1.43;;;21.30;56.50;;;;;;4920662;29;20459;-71
2023/01/18 06:25:51;;;;;;;2.83;1.50;;;21.30;56.50;;;;;;4929437;29;20493;-71
2023/01/18 06:28:21;;;;;;;2.10;1.70;;;21.30;56.60;;;;;;4932054;29;20462;-71
2023/01/18 06:30:51;;;;;;;3.73;1.20;;;21.30;56.60;;;;;;4930962;29;21334;-72
2023/01/18 06:33:19;;;;;;;2.07;1.97;;;21.20;56.60;;;;;;4932330;29;20531;-71
2023/01/18 06:35:49;;;;;;;1.60;1.40;;;21.20;56.60;;;;;;4931985;29;20537;-71
2023/01/18 06:38:17;;;;;;;1.83;1.40;;;21.20;56.70;;;;;;4934792;29;20542;-71
2023/01/18 06:40:45;;;;;;;1.90;1.67;;;21.20;56.70;;;;;;4933061;29;20561;-71
2023/01/18 06:43:14;;;;;;;1.57;1.30;;;21.20;56.70;;;;;;4930017;29;20532;-70
2023/01/18 06:45:43;;;;;;;1.93;1.73;;;21.20;56.70;;;;;;4927586;29;20505;-70
2023/01/18 06:48:11;;;;;;;1.90;1.47;;;21.30;56.70;;;;;;4926626;29;20448;-69
2023/01/18 06:50:39;;;;;;;2.00;1.37;;;21.30;56.80;;;;;;4930274;29;20818;-70
2023/01/18 06:53:08;;;;;;;1.80;1.70;;;21.30;56.80;;;;;;4933236;29;20479;-70
2023/01/18 06:55:36;;;;;;;1.33;1.23;;;21.30;56.60;;;;;;4933691;29;20478;-70
2023/01/18 06:58:05;;;;;;;1.40;1.30;;;21.30;56.60;;;;;;4934115;29;20578;-70
2023/01/18 07:00:34;;;;;;;1.93;1.83;;;21.30;56.80;;;;;;4926334;29;20475;-71
2023/01/18 07:03:03;;;;;;;1.70;1.60;;;21.30;56.80;;;;;;4927271;29;20525;-71
2023/01/18 07:05:31;;;;;;;1.30;1.20;;;21.30;56.80;;;;;;4930440;29;20499;-69
2023/01/18 07:07:59;;;;;;;1.47;1.37;;;21.30;56.80;;;;;;4927104;29;20463;-61
2023/01/18 07:10:29;;;;;;;2.00;1.53;;;21.30;57.40;;;;;;4930583;29;20497;-61
2023/01/18 07:12:57;;;;;;;4.60;2.17;;;21.40;58.00;;;;;;4934239;29;20558;-61
2023/01/18 07:15:25;;;;;;;2.73;1.80;;;21.40;58.20;;;;;;4931757;29;20502;-60
2023/01/18 07:17:53;;;;;;;1.60;1.50;;;21.50;58.10;;;;;;4935235;29;20477;-62
2023/01/18 07:20:22;;;;;;;2.07;1.80;;;21.50;58.10;;;;;;4933443;29;20975;-61
2023/01/18 07:22:51;;;;;;;5.73;2.20;;;21.50;58.00;;;;;;4932126;29;20773;-61
2023/01/18 07:25:20;;;;;;;2.50;2.07;;;21.50;57.40;;;;;;4932793;29;20488;-61
2023/01/18 07:27:49;;;;;;;3.30;2.23;;;21.60;57.80;;;;;;4932382;29;20507;-61
2023/01/18 07:30:18;;;;;;;1.77;1.67;;;21.60;57.70;;;;;;4933954;29;20523;-61
2023/01/18 07:32:48;;;;;;;2.00;1.80;;;21.60;57.50;;;;;;4933842;29;20456;-61
2023/01/18 07:35:18;;;;;;;2.57;2.00;;;21.60;57.70;;;;;;4935651;28;20462;-61
2023/01/18 07:37:49;;;;;;;3.10;1.90;;;21.60;57.60;;;;;;4932468;29;20451;-61
2023/01/18 07:40:19;;;;;;;2.60;1.87;;;21.60;57.50;;;;;;4933641;29;20844;-62
2023/01/18 07:42:55;;;;;;;2.23;1.90;;;21.60;57.40;;;;;;4930651;29;20820;-61
2023/01/18 07:45:24;;;;;;;2.63;2.20;;;21.60;57.40;;;;;;4929605;29;20518;-62
2023/01/18 07:47:52;;;;;;;2.17;1.70;;;21.60;57.30;;;;;;4930919;29;20492;-62
2023/01/18 07:50:21;;;;;;;1.77;1.53;;;21.70;57.20;;;;;;4928631;29;20471;-62
2023/01/18 07:52:49;;;;;;;2.13;1.77;;;21.70;57.10;;;;;;4929963;29;20463;-61
2023/01/18 07:55:18;;;;;;;3.63;2.40;;;21.70;57.00;;;;;;4922677;29;20483;-63
2023/01/18 07:57:46;;;;;;;2.33;1.40;;;21.70;56.90;;;;;;4934434;29;20557;-61
2023/01/18 08:00:16;;;;;;;4.40;1.73;;;21.80;56.80;;;;;;4932539;29;20586;-60
2023/01/18 08:02:45;;;;;;;2.10;2.00;;;21.80;56.70;;;;;;4934948;29;20460;-60
2023/01/18 08:05:13;;;;;;;6.43;2.50;;;21.80;56.60;;;;;;4931795;29;20503;-61
2023/01/18 08:07:41;;;;;;;3.03;1.80;;;21.90;56.50;;;;;;4934833;29;20454;-61
2023/01/18 08:10:10;;;;;;;1.63;1.53;;;21.90;56.40;;;;;;4933985;29;20449;-61
2023/01/18 08:12:38;;;;;;;2.50;1.50;;;21.90;56.30;;;;;;4926762;29;20471;-61
2023/01/18 08:15:08;;;;;;;1.87;1.77;;;22.00;56.30;;;;;;4933393;29;20529;-62
2023/01/18 08:17:37;;;;;;;2.37;1.50;;;22.00;56.20;;;;;;4929716;29;20599;-61
2023/01/18 08:20:08;;;;;;;2.70;2.00;;;22.00;56.10;;;;;;4932454;29;20487;-60
2023/01/18 08:22:36;;;;;;;1.80;1.70;;;22.00;56.00;;;;;;4934935;29;20453;-61
2023/01/18 08:25:05;;;;;;;1.80;1.70;;;22.00;56.00;;;;;;4930276;29;20510;-62
2023/01/18 08:27:33;;;;;;;2.27;1.90;;;22.10;55.90;;;;;;4933187;29;20447;-61
2023/01/18 08:30:01;;;;;;;1.70;1.50;;;22.10;55.90;;;;;;4927916;29;20503;-62
2023/01/18 08:32:29;;;;;;;3.20;2.30;;;22.10;55.80;;;;;;4932818;29;20445;-61
2023/01/18 08:34:59;;;;;;;2.43;1.67;;;22.10;55.80;;;;;;4930722;29;20471;-60
2023/01/18 08:37:28;;;;;;;3.60;2.00;;;22.10;55.80;;;;;;4928311;29;20467;-61
2023/01/18 08:39:56;;;;;;;1.93;1.83;;;22.10;55.80;;;;;;4928228;29;20475;-62
2023/01/18 08:42:25;;;;;;;2.20;2.00;;;22.10;55.80;;;;;;4940893;29;20474;-61
2023/01/18 08:44:53;;;;;;;1.70;1.60;;;22.10;55.70;;;;;;4929522;29;20492;-62
2023/01/18 08:47:22;;;;;;;2.40;2.20;;;22.10;55.70;;;;;;4933433;29;20458;-69
2023/01/18 08:49:50;;;;;;;2.47;1.77;;;22.10;55.70;;;;;;4931430;29;20489;-69
2023/01/18 08:52:19;;;;;;;4.30;2.20;;;22.10;55.70;;;;;;4933858;29;20484;-62
2023/01/18 08:54:47;;;;;;;2.20;1.97;;;22.10;55.80;;;;;;4932648;29;20488;-61
2023/01/18 08:57:16;;;;;;;3.47;2.23;;;22.10;56.00;;;;;;4933785;29;20508;-62
2023/01/18 08:59:44;;;;;;;2.03;1.83;;;22.10;56.00;;;;;;4932953;29;20532;-61
2023/01/18 09:02:12;;;;;;;2.50;2.30;;;22.20;55.90;;;;;;4929932;29;20452;-62
2023/01/18 09:04:41;;;;;;;2.77;2.50;;;22.20;55.90;;;;;;4929804;29;20518;-61
2023/01/18 09:07:09;;;;;;;2.70;1.90;;;22.20;55.90;;;;;;4934426;29;20511;-62
2023/01/18 09:09:38;;;;;;;1.63;1.50;;;22.20;55.90;;;;;;4931245;29;20955;-62
2023/01/18 09:12:07;;;;;;;2.17;2.00;;;22.20;55.80;;;;;;4933222;29;20946;-62
2023/01/18 09:14:35;;;;;;;3.10;1.90;;;22.30;55.80;;;;;;4933201;29;20575;-62
2023/01/18 09:17:03;;;;;;;1.87;1.77;;;22.30;55.80;;;;;;4933222;29;20575;-62
2023/01/18 09:19:31;;;;;;;2.03;1.90;;;22.30;55.70;;;;;;4932468;29;20576;-61
2023/01/18 09:22:00;;;;;;;2.00;1.90;;;22.30;55.60;;;;;;4932591;29;20554;-63
2023/01/18 09:24:28;;;;;;;1.70;1.60;;;22.30;55.60;;;;;;4932485;29;20817;-62
2023/01/18 09:26:57;;;;;;;1.90;1.80;;;22.40;55.60;;;;;;4928235;29;20543;-63
2023/01/18 09:29:26;;;;;;;1.77;1.67;;;22.40;55.50;;;;;;4933290;29;20456;-62
2023/01/18 09:31:54;;;;;;;1.80;1.70;;;22.40;55.50;;;;;;4931877;29;20467;-62
2023/01/18 09:34:23;;;;;;;2.17;1.97;;;22.40;55.50;;;;;;4929924;29;20547;-65
2023/01/18 09:36:52;;;;;;;2.90;1.60;;;22.40;55.40;;;;;;4932433;29;20601;-62
2023/01/18 09:39:21;;;;;;;1.90;1.80;;;22.40;55.40;;;;;;4931430;29;20500;-63
2023/01/18 09:41:52;;;;;;;1.37;1.27;;;22.40;55.40;;;;;;4931239;29;20532;-62
2023/01/18 09:44:30;;;;;;;1.83;1.70;;;22.40;55.40;;;;;;4929797;29;20495;-62
2023/01/18 09:47:01;;;;;;;1.97;1.80;;;22.30;55.40;;;;;;4932401;29;20499;-62
2023/01/18 09:49:36;;;;;;;2.30;2.00;;;22.30;55.40;;;;;;4929453;29;20455;-61
2023/01/18 09:52:24;;;;;;;2.53;1.77;;;22.30;55.40;;;;;;4923230;29;20857;-62
2023/01/18 09:55:00;;;;;;;2.70;1.60;;;22.30;55.40;;;;;;4929111;29;20514;-62
2023/01/18 09:57:40;;;;;;;1.60;1.50;;;22.30;55.40;;;;;;4932619;29;20473;-62
2023/01/18 10:00:22;;;;;;;1.80;1.70;;;22.30;55.40;;;;;;4934553;29;20462;-62
2023/01/18 10:02:54;;;;;;;1.70;1.60;;;22.30;55.40;;;;;;4936105;29;20485;-62
2023/01/18 10:05:26;;;;;;;1.67;1.57;;;22.30;55.30;;;;;;4935892;29;20470;-64
2023/01/18 10:08:03;;;;;;;1.60;1.50;;;22.30;55.30;;;;;;4937063;29;20586;-64
2023/01/18 10:10:36;;;;;;;1.53;1.43;;;22.30;55.40;;;;;;4934262;29;20467;-63
2023/01/18 10:13:23;;;;;;;1.90;1.80;;;22.30;55.50;;;;;;4934209;29;20498;-64
2023/01/18 10:15:52;;;;;;;1.70;1.60;;;22.40;55.70;;;;;;4930893;29;20817;-63
2023/01/18 10:18:20;;;;;;;1.83;1.57;;;22.40;55.80;;;;;;4929514;29;20945;-64
2023/01/18 10:20:54;;;;;;;2.00;1.83;;;22.40;55.90;;;;;;4933666;29;20908;-64
2023/01/18 10:23:25;;;;;;;1.53;1.43;;;22.40;56.00;;;;;;4936574;29;20460;-63
2023/01/18 10:25:55;;;;;;;1.53;1.43;;;22.40;56.10;;;;;;4936218;29;20508;-64
2023/01/18 10:28:33;;;;;;;1.83;1.60;;;22.40;56.10;;;;;;4935014;29;20444;-63
2023/01/18 10:31:14;;;;;;;1.90;1.80;;;22.40;55.90;;;;;;4931670;29;20924;-63
2023/01/18 10:33:44;;;;;;;1.97;1.80;;;22.40;56.10;;;;;;4930878;29;20530;-63
2023/01/18 10:36:16;;;;;;;1.80;1.70;;;22.50;56.10;;;;;;4929389;29;20825;-63
2023/01/18 10:38:45;;;;;;;2.20;1.30;;;22.50;56.10;;;;;;4935206;29;20531;-63
2023/01/18 10:41:20;;;;;;;1.40;1.30;;;22.50;56.20;;;;;;4934265;29;20534;-63
2023/01/18 10:43:48;;;;;;;1.30;1.30;;;22.50;56.20;;;;;;4935027;29;20475;-63
2023/01/18 10:46:19;;;;;;;1.53;1.30;;;22.50;56.20;;;;;;4934180;29;20982;-65
2023/01/18 10:48:50;;;;;;;1.50;1.40;;;22.40;56.20;;;;;;4932023;29;20479;-66
2023/01/18 10:51:28;;;;;;;6.73;1.70;;;22.40;56.30;;;;;;4929458;29;20461;-63
2023/01/18 10:53:57;;;;;;;2.17;1.50;;;22.40;56.20;;;;;;4935256;29;20473;-64
2023/01/18 10:56:28;;;;;;;1.83;1.70;;;22.40;56.10;;;;;;4934896;29;20479;-64
2023/01/18 10:58:58;;;;;;;1.50;1.40;;;22.40;56.10;;;;;;4931647;29;20560;-63
2023/01/18 11:01:29;;;;;;;1.93;1.73;;;22.30;56.00;;;;;;4926744;29;20448;-65
2023/01/18 11:04:03;;;;;;;1.50;1.40;;;22.30;56.00;;;;;;4925359;29;20456;-64
2023/01/18 11:06:45;;;;;;;1.63;1.53;;;22.30;56.00;;;;;;4933491;29;20451;-63
2023/01/18 11:09:39;;;;;;;1.60;1.50;;;22.20;55.90;;;;;;4933258;29;20512;-63
2023/01/18 11:12:35;;;;;;;1.90;1.80;;;22.20;56.10;;;;;;4925628;29;20829;-63
2023/01/18 11:15:25;;;;;;;2.57;1.47;;;22.10;56.20;;;;;;4934948;29;20496;-65
2023/01/18 11:18:08;;;;;;;3.73;2.60;;;22.10;56.30;;;;;;4924823;29;20473;-63
2023/01/18 11:20:47;;;;;;;7.30;5.00;;;22.10;56.40;;;;;;4927477;29;20543;-63
2023/01/18 11:23:24;;;;;;;11.07;6.90;;;22.10;56.60;;;;;;4933753;29;20555;-63
2023/01/18 11:25:56;;;;;;;15.03;7.27;;;22.00;56.20;;;;;;4924227;29;20507;-64
2023/01/18 11:28:28;;;;;;;15.20;7.40;;;22.00;56.30;;;;;;4929677;29;20504;-63
2023/01/18 11:31:00;;;;;;;10.10;7.23;;;22.00;56.70;;;;;;4933929;29;20472;-64
2023/01/18 11:33:30;;;;;;;9.10;6.50;;;22.00;56.80;;;;;;4933886;29;20489;-64
2023/01/18 11:36:02;;;;;;;9.53;5.93;;;22.00;56.70;;;;;;4927198;29;20558;-64
2023/01/18 11:38:32;;;;;;;9.50;6.30;;;22.00;56.60;;;;;;4934689;29;20575;-66
2023/01/18 11:41:07;;;;;;;9.37;6.83;;;22.10;56.70;;;;;;4930126;29;20472;-65
2023/01/18 11:43:38;;;;;;;12.90;6.30;;;22.00;56.20;;;;;;4928742;29;20453;-65
2023/01/18 11:46:26;;;;;;;12.73;6.53;;;22.00;56.20;;;;;;4934714;29;20869;-64
2023/01/18 11:49:01;;;;;;;8.33;6.17;;;22.00;55.90;;;;;;4929275;29;20459;-65
2023/01/18 11:51:35;;;;;;;11.53;6.30;;;22.00;56.00;;;;;;4929073;29;20508;-64
2023/01/18 11:54:09;;;;;;;8.67;6.17;;;22.00;56.50;;;;;;4933177;29;20478;-64
2023/01/18 11:56:43;;;;;;;11.10;5.70;;;22.00;56.50;;;;;;4928568;29;20473;-64
2023/01/18 11:59:15;;;;;;;8.60;5.53;;;22.00;56.40;;;;;;4923726;29;20504;-64
2023/01/18 12:02:13;;;;;;;10.87;5.33;;;22.00;56.50;;;;;;4928150;29;21368;-65
2023/01/18 12:04:56;;;;;;;7.70;5.60;;;22.00;56.60;;;;;;4930381;29;20471;-63
2023/01/18 12:07:40;;;;;;;10.73;5.80;;;22.00;56.70;;;;;;4931327;29;20532;-64
2023/01/18 12:10:15;;;;;;;6.70;5.30;;;22.00;56.80;;;;;;4933177;29;20448;-65
2023/01/18 12:12:59;;;;;;;9.80;5.80;;;22.00;56.80;;;;;;4933999;29;20971;-62
2023/01/18 12:15:50;;;;;;;8.60;5.23;;;22.00;56.90;;;;;;4927486;29;21785;-65
2023/01/18 12:18:43;;;;;;;7.40;5.37;;;22.00;56.90;;;;;;4920431;29;20860;-63
2023/01/18 12:21:15;;;;;;;9.27;5.53;;;22.00;56.90;;;;;;4928384;29;20989;-65
2023/01/18 12:23:59;;;;;;;21.07;4.90;;;22.00;56.90;;;;;;4931456;29;20499;-63
2023/01/18 12:26:55;;;;;;;6.23;4.20;;;22.00;56.90;;;;;;4931257;29;20460;-62
2023/01/18 12:29:55;;;;;;;6.73;4.50;;;22.10;56.80;;;;;;4927702;29;20468;-64
2023/01/18 12:32:38;;;;;;;8.93;4.20;;;22.10;56.80;;;;;;4945534;29;20524;-63
2023/01/18 12:35:26;;;;;;;7.83;4.77;;;22.10;56.70;;;;;;4925733;29;20456;-65
2023/01/18 12:38:05;;;;;;;7.23;5.20;;;22.10;56.70;;;;;;4925922;29;20474;-67
2023/01/18 12:40:55;;;;;;;5.40;4.90;;;22.20;56.60;;;;;;4920946;29;20492;-63
2023/01/18 12:43:41;;;;;;;6.93;5.27;;;22.20;56.60;;;;;;4924096;29;20941;-63
2023/01/18 12:46:15;;;;;;;7.50;5.63;;;22.20;56.60;;;;;;4919822;29;20886;-63
2023/01/18 12:48:49;;;;;;;5.87;4.10;;;22.20;56.50;;;;;;4926122;29;20526;-63
2023/01/18 12:51:22;;;;;;;5.63;4.00;;;22.20;56.40;;;;;;4928083;29;20456;-64
2023/01/18 12:53:57;;;;;;;6.60;4.13;;;22.20;56.40;;;;;;4925429;29;21115;-63
2023/01/18 12:56:32;;;;;;;4.80;4.10;;;22.20;56.40;;;;;;4923123;29;20456;-66
2023/01/18 12:59:04;;;;;;;7.43;3.90;;;22.20;56.30;;;;;;4931491;29;20538;-64
2023/01/18 13:01:38;;;;;;;3.63;3.30;;;22.20;56.30;;;;;;4927321;29;20538;-64
2023/01/18 13:04:13;;;;;;;6.90;3.77;;;22.20;56.40;;;;;;4928804;29;20463;-63
2023/01/18 13:06:43;;;;;;;5.47;3.67;;;22.20;56.50;;;;;;4926047;29;20570;-64
2023/01/18 13:09:19;;;;;;;6.90;4.53;;;22.20;56.50;;;;;;4928124;29;20514;-64
2023/01/18 13:11:48;;;;;;;9.00;4.73;;;22.10;56.50;;;;;;4924760;29;20456;-64
2023/01/18 13:14:24;;;;;;;6.50;4.40;;;22.10;56.60;;;;;;4924943;29;20500;-64
2023/01/18 13:17:09;;;;;;;5.17;3.80;;;22.10;56.60;;;;;;4930857;29;20456;-64
2023/01/18 13:19:42;;;;;;;5.13;3.47;;;22.10;56.50;;;;;;4927152;29;20913;-64
2023/01/18 13:22:20;;;;;;;4.30;3.20;;;22.10;56.40;;;;;;4930016;29;20452;-64
2023/01/18 13:25:00;;;;;;;4.80;3.83;;;22.10;56.40;;;;;;4930248;29;20487;-65
2023/01/18 13:27:30;;;;;;;5.40;3.73;;;22.10;56.30;;;;;;4926306;29;20538;-65
2023/01/18 13:30:08;;;;;;;5.73;3.23;;;22.10;56.30;;;;;;4924704;29;20848;-64
2023/01/18 13:32:40;;;;;;;3.83;3.42;;;22.10;56.30;;;;;;4928393;29;20472;-62
2023/01/18 13:35:16;;;;;;;5.90;3.10;;;22.10;56.30;;;;;;4926823;29;20259;-65
2023/01/18 13:37:50;;;;;;;4.37;3.60;;;22.20;56.40;;;;;;4932470;29;20776;-63
2023/01/18 13:40:30;;;;;;;4.40;3.37;;;22.20;56.50;;;;;;4935397;29;20464;-63
2023/01/18 13:42:59;;;;;;;4.17;3.30;;;22.40;56.50;;;;;;4930486;29;20475;-64
2023/01/18 13:45:29;;;;;;;6.73;3.90;;;22.40;56.50;;;;;;4934226;29;20457;-63
2023/01/18 13:48:03;;;;;;;6.37;3.63;;;22.50;56.60;;;;;;4931583;29;20881;-63